LFBM 301030Z AUTO VRB03KT CAVOK 27/15 Q1014 NOSIG

ElémentsDécodage
LFBM Station météo située sur l'aérodrome de MONT-DE-MARSAN
301030Z émis le 30 du mois à 10h30 UTC
AUTO Bulletin édité par un automate
VRB03KT vent de direction variable, 03 noeuds
CAVOK Ceiling And Visibility OK
- Visibilité de 10 Km ou plus
- Pas de nuage au-dessous de 1500m ou au-dessous de l'altitude minimale du secteur la plus élevée (si>1500m) et absence de CB
- pas de temps présent significatif
27/15 température 27°C, point de rosée 15°C
 soit une humidité relative de 48%
Q1014 la pression au niveau de la mer (QNH) est de 1014 hPa
NOSIG Pas de changement significatif prévu au cours des deux heures suivant l'heure de l'observation